Chadstone Weather > Observations for 21/03/21

Select Day:



Observations
Time Temp Hum DP Wind Gust Dir Rain >9am Press
C % C kph kph mm hPa
00:00 19.7 78 15.8 4.8 11.2 SE 0.0 1012.1
00:10 19.8 78 15.9 4.2 12.2 SSE 0.0 1012.1
00:20 19.8 77 15.7 4.1 14.8 ESE 0.0 1012.2
00:30 19.8 77 15.7 6.0 12.2 SSE 0.0 1012.1
00:40 19.8 77 15.7 4.1 9.7 SE 0.0 1012.2
00:50 19.8 77 15.7 4.2 11.2 SSE 0.0 1012.0
01:00 19.8 78 15.9 3.1 9.7 SE 0.0 1012.0
01:10 19.8 78 15.9 4.5 11.2 SE 0.0 1012.0
01:20 19.8 78 15.9 5.8 11.2 SSE 0.0 1011.9
01:30 19.8 78 15.9 5.5 13.3 SE 0.0 1011.7
01:40 19.8 78 15.9 6.1 12.2 ESE 0.0 1011.9
01:50 19.8 78 15.9 6.2 12.2 SE 0.0 1011.8
02:00 19.8 78 15.9 5.4 13.3 SE 0.0 1011.7
02:10 19.8 78 15.9 4.5 12.2 SE 0.0 1011.6
02:20 19.8 79 16.1 5.9 17.3 SE 0.0 1011.6
02:30 19.7 79 16.0 5.5 14.8 SE 0.0 1011.8
02:40 19.6 79 15.9 5.8 14.8 SE 0.0 1011.8
02:50 19.6 79 15.9 6.9 17.3 SE 0.0 1011.9
03:00 19.6 80 16.1 4.8 11.2 E 0.0 1011.9
03:10 19.6 80 16.1 3.4 11.2 ESE 0.0 1011.9
03:20 19.4 82 16.3 3.4 11.2 SE 0.0 1011.9
03:30 19.2 84 16.4 0.8 7.2 SE 0.0 1011.8
03:40 19.0 85 16.4 4.4 8.6 SSE 0.0 1011.6
03:50 19.0 86 16.6 6.5 13.3 SE 0.0 1011.3
04:00 19.0 86 16.6 7.0 20.9 SE 0.0 1011.5
04:10 19.0 86 16.6 7.3 15.8 ESE 0.0 1011.4
04:20 19.0 87 16.8 5.4 14.8 SSE 0.0 1011.4
04:30 19.0 87 16.8 7.2 15.8 SE 0.0 1011.4
04:40 18.9 89 17.1 7.1 15.8 SE 0.0 1011.5
04:50 18.9 90 17.2 7.4 15.8 SSE 0.0 1011.4
05:00 18.9 90 17.2 7.3 18.4 ESE 0.0 1011.4
05:10 19.0 89 17.2 6.3 18.4 SE 0.0 1011.3
05:20 19.0 90 17.3 8.6 17.3 SE 0.0 1011.0
05:30 18.9 91 17.4 8.1 18.4 SE 0.0 1011.0
05:40 18.8 92 17.5 8.6 15.8 SE 0.0 1011.0
05:50 18.7 92 17.4 7.0 13.3 SSE 0.0 1011.0
06:00 18.7 93 17.6 6.2 13.3 ESE 0.0 1010.8
06:10 18.7 94 17.7 6.0 13.3 SE 0.0 1011.0
06:20 18.7 95 17.9 5.3 12.2 SE 0.0 1010.8
06:30 18.7 95 17.9 5.4 13.3 ESE 0.0 1011.0
06:40 18.7 95 17.9 3.3 12.2 SE 0.3 1011.2
06:50 18.7 95 17.9 2.4 9.7 SE 0.3 1011.2
07:00 18.7 95 17.9 3.7 12.2 SSE 0.3 1011.3
07:10 18.7 96 18.1 4.1 12.2 SE 0.3 1011.0
07:20 18.7 96 18.1 5.4 18.4 SSE 0.3 1011.1
07:30 18.8 96 18.2 7.3 18.4 S 0.3 1011.0
07:40 18.8 96 18.2 2.3 12.2 SSE 0.3 1011.0
07:50 18.8 96 18.2 4.7 12.2 SE 0.3 1010.6
08:00 18.8 96 18.2 6.0 13.3 SE 0.3 1010.9
08:10 18.8 96 18.2 4.4 11.2 SSE 0.3 1010.9
08:20 18.9 96 18.3 3.3 13.3 SSE 0.3 1010.9
08:30 19.0 95 18.2 3.2 8.6 SSE 0.3 1011.0
08:40 19.0 95 18.2 3.0 9.7 ESE 0.3 1011.1
08:50 19.1 95 18.3 4.4 11.2 SE 0.3 1011.0
09:00 19.2 95 18.4 5.0 12.2 SSE 0.3 1010.9
09:10 19.3 94 18.3 4.0 12.2 SSE 0.6 1010.8
09:20 19.4 94 18.4 5.4 12.2 SSE 0.6 1010.6
09:30 19.5 94 18.5 4.0 12.2 SSE 0.6 1010.6
09:40 19.7 94 18.7 8.4 18.4 SE 0.6 1010.7
09:50 20.0 92 18.7 6.2 15.8 SSE 0.6 1010.8
10:00 20.2 90 18.5 6.1 12.2 SE 0.0 1010.8
10:10 20.3 89 18.4 7.4 17.3 SE 0.0 1010.7
10:20 20.3 88 18.3 8.0 24.5 SE 0.3 1010.8
10:30 20.2 88 18.2 4.5 17.3 SE 0.3 1010.8
10:40 20.1 89 18.2 6.5 15.8 SE 0.6 1010.7
10:50 20.0 89 18.1 6.6 14.8 SE 0.9 1010.4
11:00 19.8 91 18.3 7.2 15.8 SE 0.9 1010.2
11:10 19.8 91 18.3 7.8 14.8 SE 1.2 1010.3
11:20 19.8 92 18.5 7.0 12.2 SE 1.2 1010.2
11:30 19.8 93 18.7 7.3 22.0 SE 1.5 1010.1
11:40 19.8 94 18.8 8.9 22.0 SSE 1.5 1010.1
11:50 19.9 94 18.9 7.6 23.4 SSE 1.5 1010.0
12:00 20.0 93 18.9 11.2 22.0 SE 1.5 1009.7
12:10 20.1 93 18.9 8.5 20.9 ESE 1.5 1009.6
12:20 20.3 93 19.1 8.5 20.9 SE 1.5 1009.5
12:30 20.4 93 19.2 6.2 15.8 SSE 1.5 1009.4
12:40 20.6 92 19.3 7.2 23.4 SE 1.8 1009.3
12:50 20.7 91 19.2 7.7 18.4 SSE 1.8 1009.1
13:00 20.7 90 19.0 5.9 14.8 SSE 1.8 1009.0
13:10 20.7 90 19.0 6.1 17.3 SE 1.8 1008.9
13:20 20.8 90 19.1 6.7 14.8 SE 2.1 1008.7
13:30 20.7 90 19.0 6.1 20.9 ESE 2.1 1008.6
13:40 20.8 90 19.1 4.9 13.3 ESE 2.1 1008.3
13:50 20.8 90 19.1 5.8 13.3 SE 2.1 1008.3
14:00 20.9 90 19.2 5.2 17.3 SSE 2.1 1008.2
14:10 21.1 89 19.2 2.6 9.7 SE 2.1 1007.9
14:20 21.3 88 19.3 4.5 11.2 ESE 2.1 1007.9
14:30 21.6 88 19.5 3.3 9.7 SSE 2.1 1007.8
14:40 21.9 87 19.7 4.0 11.2 SE 2.4 1007.7
14:50 21.9 87 19.7 4.2 12.2 ESE 2.4 1007.7
15:00 22.1 85 19.5 2.6 8.6 ESE 2.4 1007.5
15:10 22.1 85 19.5 3.2 11.2 SE 2.4 1007.3
15:20 22.0 84 19.2 3.7 9.7 SE 2.7 1007.3
15:30 21.9 86 19.5 2.2 9.7 SE 2.7 1007.3
15:40 21.8 86 19.4 3.0 8.6 ESE 2.7 1007.2
15:50 21.7 86 19.3 2.2 7.2 ESE 3.0 1007.2
16:00 21.6 86 19.2 1.9 8.6 E 3.0 1007.3
16:10 21.5 87 19.3 2.2 7.2 ESE 3.6 1007.1
16:20 21.2 88 19.2 1.7 11.2 ESE 3.6 1007.0
16:30 21.1 88 19.1 3.4 11.2 ESE 3.6 1006.9
16:40 20.9 90 19.2 4.8 13.3 SE 3.6 1006.7
16:50 20.9 91 19.4 4.9 17.3 SE 3.9 1006.6
17:00 20.7 91 19.2 6.8 14.8 ESE 3.9 1006.6
17:10 20.6 91 19.1 7.3 14.8 SSE 3.9 1006.8
17:20 20.6 91 19.1 2.8 12.2 SE 3.9 1006.6
17:30 20.5 92 19.2 5.6 15.8 ESE 3.9 1006.7
17:40 20.4 92 19.1 3.5 11.2 SSE 3.9 1006.8
17:50 20.3 93 19.1 4.2 12.2 SE 4.2 1006.6
18:00 20.2 93 19.0 5.6 13.3 SE 4.2 1006.7
18:10 20.3 93 19.1 4.0 12.2 SE 4.2 1006.4
18:20 20.3 93 19.1 5.4 12.2 SE 4.2 1006.3
18:30 20.3 93 19.1 6.5 14.8 SE 4.2 1006.1
18:40 20.3 93 19.1 7.6 18.4 ESE 4.2 1006.0
18:50 20.4 93 19.2 5.8 13.3 ESE 4.2 1006.0
19:00 20.3 93 19.1 5.4 18.4 SSE 4.2 1006.0
19:10 20.4 93 19.2 5.5 13.3 SE 4.2 1005.9
19:20 20.3 92 19.0 4.4 9.7 SE 4.2 1006.0
19:30 20.3 92 19.0 6.8 13.3 ESE 4.2 1005.9
19:40 20.3 92 19.0 4.5 9.7 ESE 4.2 1006.2
19:50 20.3 91 18.8 4.1 12.2 SE 4.2 1006.3
20:00 20.2 91 18.7 3.3 11.2 SE 4.2 1006.5
20:10 20.3 91 18.8 2.9 13.3 SE 4.2 1006.5
20:20 20.3 91 18.8 3.0 7.2 SE 4.2 1006.7
20:30 20.3 91 18.8 5.3 12.2 ESE 4.2 1006.8
20:40 20.3 91 18.8 1.6 9.7 SE 4.2 1007.1
20:50 20.2 90 18.5 4.3 12.2 ESE 4.2 1007.3
21:00 20.2 90 18.5 5.9 12.2 ESE 4.2 1007.4
21:10 20.2 90 18.5 4.7 12.2 ESE 4.2 1007.6
21:20 20.2 90 18.5 2.7 9.7 ESE 4.2 1007.6
21:30 20.1 90 18.4 0.9 5.0 E 4.2 1007.8
21:40 20.1 90 18.4 1.3 8.6 SE 4.2 1007.8
21:50 20.0 90 18.3 0.9 5.0 SSE 4.2 1008.0
22:00 20.0 90 18.3 0.1 5.0 ESE 4.2 1007.8
22:10 19.9 91 18.4 0.0 2.5 SE 4.2 1007.9
22:20 19.8 91 18.3 0.4 5.0 SE 4.2 1008.0
22:30 19.7 91 18.2 2.0 6.1 SE 4.2 1008.1
22:40 19.7 91 18.2 1.5 6.1 SE 4.2 1008.1
22:50 19.6 91 18.1 2.3 8.6 SE 4.2 1008.1
23:00 19.6 91 18.1 0.1 3.6 SE 4.2 1008.0
23:10 19.5 92 18.2 0.0 0.0 N 4.2 1008.2
23:20 19.5 92 18.2 0.1 3.6 ESE 4.2 1008.2
23:30 19.4 92 18.1 0.0 2.5 NE 4.2 1008.3
23:40 19.3 92 18.0 0.0 0.0 N 4.2 1008.3
23:50 19.1 92 17.8 0.0 1.1 N 4.2 1008.5